createdAt,value
2023-05-19T00:00:39.642Z,73.36
2023-05-19T00:01:39.638Z,73.61
2023-05-19T00:02:39.776Z,73.40
2023-05-19T00:03:39.740Z,73.40
2023-05-19T00:04:39.625Z,73.10
2023-05-19T00:05:39.645Z,73.10
2023-05-19T00:06:39.576Z,73.10
2023-05-19T00:07:39.575Z,72.89
2023-05-19T00:08:39.557Z,73.36
2023-05-19T00:09:39.642Z,73.40
2023-05-19T00:10:39.533Z,73.36
2023-05-19T00:11:39.549Z,73.40
2023-05-19T00:12:39.510Z,73.40
2023-05-19T00:13:39.518Z,73.10
2023-05-19T00:14:39.528Z,74.57
2023-05-19T00:15:39.586Z,74.26
2023-05-19T00:16:39.500Z,74.46
2023-05-19T00:17:39.497Z,74.12
2023-05-19T00:18:39.468Z,74.46
2023-05-19T00:19:39.439Z,74.98
2023-05-19T00:20:39.436Z,74.57
2023-05-19T00:21:39.411Z,74.91
2023-05-19T00:22:39.394Z,74.57
2023-05-19T00:23:39.388Z,74.87
2023-05-19T00:24:39.403Z,75.08
2023-05-19T00:25:39.370Z,75.42
2023-05-19T00:26:39.384Z,75.38
2023-05-19T00:27:39.394Z,75.01
2023-05-19T00:28:39.333Z,74.91
2023-05-19T00:29:39.352Z,75.32
2023-05-19T00:30:39.320Z,75.11
2023-05-19T00:31:39.369Z,75.83
2023-05-19T00:32:39.322Z,75.32
2023-05-19T00:33:39.299Z,75.66
2023-05-19T00:34:39.310Z,75.56
2023-05-19T00:35:39.254Z,75.83
2023-05-19T00:36:39.253Z,75.45
2023-05-19T00:37:39.293Z,76.34
2023-05-19T00:38:39.259Z,76.68
2023-05-19T00:39:39.228Z,77.00
2023-05-19T00:40:39.253Z,76.79
2023-05-19T00:41:39.209Z,76.48
2023-05-19T00:42:39.208Z,76.89
2023-05-19T00:43:39.189Z,77.00
2023-05-19T00:44:39.171Z,77.13
2023-05-19T00:45:39.162Z,77.10
2023-05-19T00:46:39.231Z,77.20
2023-05-19T00:47:39.200Z,77.55
2023-05-19T00:48:39.135Z,77.23
2023-05-19T00:49:39.137Z,76.93
2023-05-19T00:50:39.109Z,77.03
2023-05-19T00:51:39.108Z,77.00
2023-05-19T00:52:39.134Z,76.79
2023-05-19T00:53:39.094Z,77.13
2023-05-19T00:54:39.105Z,77.34
2023-05-19T00:55:39.050Z,76.93
2023-05-19T00:56:39.079Z,77.34
2023-05-19T00:57:39.048Z,77.44
2023-05-19T00:58:39.041Z,77.89
2023-05-19T00:59:39.024Z,77.23
2023-05-19T01:00:39.037Z,77.37
2023-05-19T01:01:39.076Z,77.95
2023-05-19T01:02:39.065Z,77.13
2023-05-19T01:03:39.044Z,77.34
2023-05-19T01:04:39.007Z,77.23
2023-05-19T01:05:38.955Z,77.95
2023-05-19T01:06:38.967Z,77.48
2023-05-19T01:07:38.979Z,77.44
2023-05-19T01:08:38.946Z,77.37
2023-05-19T01:09:38.985Z,77.23
2023-05-19T01:10:38.908Z,77.44
2023-05-19T01:11:38.903Z,77.17
2023-05-19T01:12:38.893Z,77.99
2023-05-19T01:13:41.761Z,77.13
2023-05-19T01:14:38.936Z,77.58
2023-05-19T01:15:38.856Z,77.27
2023-05-19T01:16:38.859Z,78.30
2023-05-19T01:17:38.893Z,78.16
2023-05-19T01:18:38.898Z,78.61
2023-05-19T01:19:38.848Z,78.20
2023-05-19T01:20:38.874Z,78.40
2023-05-19T01:21:38.819Z,78.50
2023-05-19T01:22:38.843Z,79.05
2023-05-19T01:23:39.784Z,78.96
2023-05-19T01:24:38.773Z,78.75
2023-05-19T01:25:38.766Z,78.85
2023-05-19T01:26:38.759Z,79.77
2023-05-19T01:27:38.757Z,79.16
2023-05-19T01:28:38.768Z,79.16
2023-05-19T01:29:38.739Z,79.67
2023-05-19T01:30:38.707Z,79.91
2023-05-19T01:31:38.746Z,80.02
2023-05-19T01:32:38.732Z,80.12
2023-05-19T01:33:38.675Z,80.12
2023-05-19T01:34:38.690Z,80.33
2023-05-19T01:35:38.684Z,80.02
2023-05-19T01:36:38.650Z,80.47
2023-05-19T01:37:38.642Z,80.53
2023-05-19T01:38:38.635Z,80.33
2023-05-19T01:39:38.654Z,80.57
2023-05-19T01:40:38.641Z,80.98
2023-05-19T01:41:38.603Z,81.49
2023-05-19T01:42:38.599Z,81.43
2023-05-19T01:43:38.580Z,81.53
2023-05-19T01:44:38.572Z,81.74
2023-05-19T01:45:38.606Z,81.84
2023-05-19T01:46:38.576Z,81.63
2023-05-19T01:47:38.571Z,81.95
2023-05-19T01:48:38.543Z,82.46
2023-05-19T01:49:38.532Z,82.29
2023-05-19T01:50:38.516Z,82.50
2023-05-19T01:51:38.551Z,82.40
2023-05-19T01:52:38.494Z,83.12
2023-05-19T01:53:38.545Z,82.46
2023-05-19T01:54:38.481Z,82.70
2023-05-19T01:55:38.467Z,82.60
2023-05-19T01:56:38.459Z,83.22
2023-05-19T01:57:38.492Z,82.91
2023-05-19T01:58:38.464Z,83.53
2023-05-19T01:59:38.446Z,83.22
2023-05-19T02:00:38.429Z,83.12
2023-05-19T02:01:38.587Z,83.63
2023-05-19T02:02:38.455Z,83.28
2023-05-19T02:03:38.414Z,83.12
2023-05-19T02:04:38.406Z,83.63
2023-05-19T02:05:38.379Z,83.12
2023-05-19T02:06:38.375Z,83.12
2023-05-19T02:07:38.354Z,83.42
2023-05-19T02:08:38.369Z,83.77
2023-05-19T02:09:38.341Z,83.36
2023-05-19T02:10:38.345Z,83.98
2023-05-19T02:11:38.321Z,83.87
2023-05-19T02:12:38.303Z,83.77
2023-05-19T02:13:38.328Z,83.87
2023-05-19T02:14:38.286Z,84.29
2023-05-19T02:15:38.323Z,83.87
2023-05-19T02:16:38.266Z,83.77
2023-05-19T02:17:38.335Z,83.77
2023-05-19T02:18:38.327Z,83.26
2023-05-19T02:19:38.287Z,84.29
2023-05-19T02:20:38.254Z,83.47
2023-05-19T02:21:38.218Z,83.36
2023-05-19T02:22:38.211Z,83.36
2023-05-19T02:23:38.222Z,83.15
2023-05-19T02:24:38.188Z,82.91
2023-05-19T02:25:38.192Z,83.22
2023-05-19T02:26:38.173Z,83.15
2023-05-19T02:27:38.190Z,83.56
2023-05-19T02:28:38.173Z,83.26
2023-05-19T02:29:38.151Z,83.26
2023-05-19T02:30:38.142Z,82.95
2023-05-19T02:31:38.210Z,82.84
2023-05-19T02:32:38.311Z,83.40
2023-05-19T02:33:38.109Z,83.29
2023-05-19T02:34:38.086Z,83.71
2023-05-19T02:35:38.079Z,83.81
2023-05-19T02:36:38.087Z,83.71
2023-05-19T02:37:38.085Z,84.33
2023-05-19T02:38:38.124Z,83.71
2023-05-19T02:39:38.063Z,83.91
2023-05-19T02:40:38.042Z,84.12
2023-05-19T02:41:38.026Z,83.91
2023-05-19T02:42:38.052Z,84.12
2023-05-19T02:43:38.031Z,84.01
2023-05-19T02:44:38.024Z,84.12
2023-05-19T02:45:38.013Z,84.67
2023-05-19T02:46:38.023Z,84.57
2023-05-19T02:47:38.009Z,84.78
2023-05-19T02:48:37.968Z,84.67
2023-05-19T02:49:38.017Z,84.67
2023-05-19T02:50:37.948Z,85.13
2023-05-19T02:51:37.937Z,85.13
2023-05-19T02:52:37.939Z,85.30
2023-05-19T02:53:37.944Z,85.64
2023-05-19T02:54:37.906Z,85.64
2023-05-19T02:55:37.905Z,85.09
2023-05-19T02:56:37.913Z,85.02
2023-05-19T02:57:37.919Z,84.72
2023-05-19T02:58:37.876Z,85.13
2023-05-19T02:59:37.897Z,85.95
2023-05-19T03:00:37.865Z,85.50
2023-05-19T03:01:38.027Z,84.51
2023-05-19T03:02:37.943Z,84.57
2023-05-19T03:03:38.029Z,84.99
2023-05-19T03:04:37.821Z,84.57
2023-05-19T03:05:37.810Z,84.51
2023-05-19T03:06:37.796Z,84.47
2023-05-19T03:07:37.794Z,84.61
2023-05-19T03:08:39.391Z,84.81
2023-05-19T03:09:37.786Z,84.36
2023-05-19T03:10:37.774Z,84.51
2023-05-19T03:11:37.780Z,84.92
2023-05-19T03:12:37.728Z,84.47
2023-05-19T03:13:37.727Z,84.78
2023-05-19T03:14:37.816Z,84.81
2023-05-19T03:15:37.706Z,84.47
2023-05-19T03:16:37.831Z,84.47
2023-05-19T03:17:37.749Z,84.88
2023-05-19T03:18:37.703Z,84.47
2023-05-19T03:19:37.658Z,84.88
2023-05-19T03:20:39.018Z,84.61
2023-05-19T03:21:37.672Z,84.51
2023-05-19T03:22:37.659Z,84.72
2023-05-19T03:23:37.648Z,84.61
2023-05-19T03:24:37.621Z,84.81
2023-05-19T03:25:37.638Z,84.61
2023-05-19T03:26:37.616Z,84.72
2023-05-19T03:27:37.624Z,85.23
2023-05-19T03:28:37.582Z,85.95
2023-05-19T03:29:37.564Z,85.02
2023-05-19T03:30:37.650Z,85.85
2023-05-19T03:31:37.572Z,84.86
2023-05-19T03:32:37.669Z,85.85
2023-05-19T03:33:37.669Z,85.99
2023-05-19T03:34:37.551Z,85.95
2023-05-19T03:35:37.512Z,85.27
2023-05-19T03:36:37.503Z,85.85
2023-05-19T03:37:37.515Z,85.95
2023-05-19T03:38:37.519Z,85.85
2023-05-19T03:39:37.488Z,85.44
2023-05-19T03:40:37.476Z,85.78
2023-05-19T03:41:37.462Z,86.10
2023-05-19T03:42:37.478Z,86.71
2023-05-19T03:43:37.484Z,86.51
2023-05-19T03:44:37.464Z,86.71
2023-05-19T03:45:37.423Z,86.51
2023-05-19T03:46:37.423Z,86.41
2023-05-19T03:47:37.473Z,86.41
2023-05-19T03:48:37.407Z,86.51
2023-05-19T03:49:37.386Z,86.30
2023-05-19T03:50:37.382Z,86.41
2023-05-19T03:51:37.361Z,87.07
2023-05-19T03:52:37.371Z,86.61
2023-05-19T03:53:37.359Z,86.61
2023-05-19T03:54:37.347Z,86.61
2023-05-19T03:55:37.385Z,86.71
2023-05-19T03:56:37.339Z,86.47
2023-05-19T03:57:37.300Z,86.51
2023-05-19T03:58:37.295Z,86.20
2023-05-19T03:59:37.314Z,86.20
2023-05-19T04:00:37.289Z,85.85
2023-05-19T04:01:37.282Z,85.54
2023-05-19T04:02:37.354Z,85.95
2023-05-19T04:03:37.302Z,85.33
2023-05-19T04:04:37.312Z,84.92
2023-05-19T04:05:37.239Z,84.72
2023-05-19T04:06:37.232Z,84.61
2023-05-19T04:07:37.225Z,85.44
2023-05-19T04:08:37.215Z,85.02
2023-05-19T04:09:37.198Z,84.88
2023-05-19T04:10:37.174Z,84.99
2023-05-19T04:11:37.186Z,83.75
2023-05-19T04:12:37.162Z,83.75
2023-05-19T04:13:37.220Z,83.19
2023-05-19T04:14:37.140Z,82.60
2023-05-19T04:15:37.195Z,81.77
2023-05-19T04:16:37.140Z,81.43
2023-05-19T04:17:37.159Z,80.75
2023-05-19T04:18:37.124Z,80.33
2023-05-19T04:19:37.105Z,80.33
2023-05-19T04:20:37.087Z,80.13
2023-05-19T04:21:37.114Z,80.61
2023-05-19T04:22:37.058Z,80.54
2023-05-19T04:23:37.061Z,80.30
2023-05-19T04:24:37.057Z,79.85
2023-05-19T04:25:37.046Z,79.23
2023-05-19T04:26:37.033Z,79.23
2023-05-19T04:27:37.045Z,79.16
2023-05-19T04:28:37.008Z,79.06
2023-05-19T04:29:37.022Z,79.79
2023-05-19T04:30:36.989Z,79.68
2023-05-19T04:31:37.024Z,79.37
2023-05-19T04:32:36.974Z,80.30
2023-05-19T04:33:36.981Z,80.30
2023-05-19T04:34:36.963Z,79.88
2023-05-19T04:35:36.937Z,79.79
2023-05-19T04:36:36.923Z,79.09
2023-05-19T04:37:36.914Z,78.13
2023-05-19T04:38:36.916Z,77.03
2023-05-19T04:39:36.941Z,75.38
2023-05-19T04:40:36.883Z,71.56
2023-05-19T04:41:36.900Z,69.04
2023-05-19T04:42:36.897Z,66.49
2023-05-19T04:43:36.880Z,66.02
2023-05-19T04:44:36.929Z,63.89
2023-05-19T04:45:36.837Z,61.90
2023-05-19T04:46:37.861Z,61.02
2023-05-19T04:47:36.907Z,58.73
2023-05-19T04:48:36.809Z,58.42
2023-05-19T04:49:36.793Z,57.28
2023-05-19T04:50:36.856Z,57.71
2023-05-19T04:52:08.707Z,56.87
2023-05-19T04:52:36.769Z,56.74
2023-05-19T04:53:36.768Z,56.92
2023-05-19T04:54:37.772Z,55.27
2023-05-19T04:55:36.729Z,55.32
2023-05-19T04:56:36.737Z,54.41
2023-05-19T04:57:36.722Z,55.07
2023-05-19T04:58:36.704Z,54.13
2023-05-19T05:00:08.620Z,54.31
2023-05-19T05:00:36.672Z,54.71
2023-05-19T05:01:36.661Z,54.18
2023-05-19T05:02:36.783Z,54.21
2023-05-19T05:03:36.677Z,54.69
2023-05-19T05:04:36.664Z,54.92
2023-05-19T05:05:36.628Z,54.26
2023-05-19T05:06:36.612Z,53.52
2023-05-19T05:07:36.642Z,52.89
2023-05-19T05:08:36.600Z,52.67
2023-05-19T05:09:36.611Z,52.16
2023-05-19T05:10:36.570Z,51.83
2023-05-19T05:11:36.573Z,51.53
2023-05-19T05:12:36.565Z,51.40
2023-05-19T05:13:36.550Z,50.78
2023-05-19T05:14:36.533Z,51.40
2023-05-19T05:15:36.536Z,51.18
2023-05-19T05:16:36.532Z,50.20
2023-05-19T05:17:36.513Z,48.79
2023-05-19T05:18:36.625Z,49.09
2023-05-19T05:19:36.494Z,48.26
2023-05-19T05:20:36.473Z,47.96
2023-05-19T05:21:36.464Z,48.16
2023-05-19T05:22:36.457Z,48.41
2023-05-19T05:23:36.478Z,47.91
2023-05-19T05:24:36.476Z,48.21
2023-05-19T05:25:36.487Z,46.98
2023-05-19T05:26:36.429Z,47.20
2023-05-19T05:27:36.406Z,47.28
2023-05-19T05:28:36.400Z,47.08
2023-05-19T05:29:36.470Z,47.28
2023-05-19T05:30:36.388Z,47.16
2023-05-19T05:31:36.360Z,47.08
2023-05-19T05:32:36.437Z,47.39
2023-05-19T05:33:36.413Z,46.98
2023-05-19T05:34:36.362Z,47.36
2023-05-19T05:35:36.350Z,46.96
2023-05-19T05:36:36.333Z,46.72
2023-05-19T05:37:36.341Z,45.81
2023-05-19T05:38:36.308Z,45.91
2023-05-19T05:39:36.304Z,45.91
2023-05-19T05:40:36.341Z,45.09
2023-05-19T05:41:36.289Z,44.99
2023-05-19T05:42:36.319Z,45.99
2023-05-19T05:43:36.289Z,46.29
2023-05-19T05:44:36.269Z,44.87
2023-05-19T05:45:36.286Z,44.74
2023-05-19T05:46:36.282Z,45.81
2023-05-19T05:47:36.270Z,45.83
2023-05-19T05:48:36.228Z,46.36
2023-05-19T05:49:36.265Z,47.44
2023-05-19T05:50:36.240Z,47.64
2023-05-19T05:51:36.237Z,47.36
2023-05-19T05:52:36.189Z,47.28
2023-05-19T05:53:36.193Z,47.69
2023-05-19T05:54:36.153Z,47.91
2023-05-19T05:55:37.202Z,49.15
2023-05-19T05:56:36.139Z,48.94
2023-05-19T05:57:36.166Z,49.27
2023-05-19T05:58:37.321Z,49.90
2023-05-19T05:59:36.126Z,49.87
2023-05-19T06:00:36.275Z,49.24
2023-05-19T06:01:36.086Z,48.74
2023-05-19T06:02:36.235Z,49.57
2023-05-19T06:03:36.121Z,49.57
2023-05-19T06:04:36.101Z,50.57
2023-05-19T06:05:36.237Z,50.07
2023-05-19T06:06:36.110Z,49.67
2023-05-19T06:07:36.057Z,49.37
2023-05-19T06:08:36.030Z,49.95
2023-05-19T06:09:36.042Z,49.12
2023-05-19T06:10:36.148Z,49.02
2023-05-19T06:11:36.055Z,48.39
2023-05-19T06:12:36.016Z,48.67
2023-05-19T06:13:36.010Z,48.07
2023-05-19T06:14:35.970Z,48.44
2023-05-19T06:15:35.989Z,48.32
2023-05-19T06:16:36.019Z,48.74
2023-05-19T06:17:36.000Z,49.16
2023-05-19T06:18:35.987Z,51.10
2023-05-19T06:19:35.944Z,50.85
2023-05-19T06:20:36.130Z,51.58
2023-05-19T06:21:35.908Z,51.76
2023-05-19T06:22:35.944Z,51.84
2023-05-19T06:23:35.905Z,51.00
2023-05-19T06:24:38.681Z,51.28
2023-05-19T06:25:35.858Z,49.44
2023-05-19T06:26:35.853Z,50.23
2023-05-19T06:27:35.859Z,49.50
2023-05-19T06:28:35.850Z,48.79
2023-05-19T06:29:35.845Z,49.60
2023-05-19T06:30:35.832Z,48.27
2023-05-19T06:31:35.848Z,48.90
2023-05-19T06:32:36.892Z,48.87
2023-05-19T06:33:35.794Z,47.77
2023-05-19T06:34:35.809Z,47.46
2023-05-19T06:35:35.772Z,47.81
2023-05-19T06:36:35.765Z,48.39
2023-05-19T06:37:35.743Z,48.54
2023-05-19T06:38:36.744Z,49.07
2023-05-19T06:39:35.734Z,50.48
2023-05-19T06:40:35.773Z,50.23
2023-05-19T06:41:35.712Z,48.61
2023-05-19T06:42:35.716Z,48.07
2023-05-19T06:43:35.686Z,47.44
2023-05-19T06:44:35.679Z,47.12
2023-05-19T06:45:35.683Z,47.02
2023-05-19T06:46:35.683Z,47.47
2023-05-19T06:47:35.669Z,46.73
2023-05-19T06:48:35.641Z,45.12
2023-05-19T06:49:35.654Z,45.65
2023-05-19T06:50:35.782Z,46.04
2023-05-19T06:51:35.639Z,45.26
2023-05-19T06:52:35.616Z,44.74
2023-05-19T06:53:35.608Z,46.23
2023-05-19T06:54:35.581Z,44.70
2023-05-19T06:55:39.215Z,45.83
2023-05-19T06:56:37.548Z,45.40
2023-05-19T06:57:35.570Z,45.40
2023-05-19T06:58:35.543Z,43.19
2023-05-19T06:59:35.526Z,45.12
2023-05-19T07:00:35.812Z,45.20
2023-05-19T07:01:35.580Z,44.40
2023-05-19T07:02:35.553Z,44.38
2023-05-19T07:03:35.589Z,44.18
2023-05-19T07:04:35.481Z,43.98
2023-05-19T07:05:35.503Z,43.55
2023-05-19T07:06:35.460Z,42.63
2023-05-19T07:07:35.466Z,42.41
2023-05-19T07:08:35.512Z,42.25
2023-05-19T07:09:35.446Z,42.46
2023-05-19T07:10:35.557Z,43.91
2023-05-19T07:11:35.432Z,41.71
2023-05-19T07:12:35.434Z,42.02
2023-05-19T07:13:35.414Z,42.24
2023-05-19T07:14:35.394Z,43.01
2023-05-19T07:15:35.393Z,42.03
2023-05-19T07:16:35.402Z,41.88
2023-05-19T07:17:35.426Z,42.47
2023-05-19T07:18:35.362Z,42.27
2023-05-19T07:19:35.352Z,43.08
2023-05-19T07:20:35.404Z,42.30
2023-05-19T07:21:35.329Z,42.49
2023-05-19T07:22:35.327Z,42.60
2023-05-19T07:23:35.321Z,43.68
2023-05-19T07:24:35.333Z,43.50
2023-05-19T07:25:35.317Z,41.63
2023-05-19T07:26:35.279Z,43.46
2023-05-19T07:27:35.389Z,44.18
2023-05-19T07:28:35.288Z,44.28
2023-05-19T07:29:35.269Z,42.86
2023-05-19T07:30:35.426Z,43.06
2023-05-19T07:31:35.273Z,42.21
2023-05-19T07:32:35.285Z,42.21
2023-05-19T07:33:35.246Z,42.90
2023-05-19T07:34:35.233Z,42.21
2023-05-19T07:35:35.197Z,42.13
2023-05-19T07:36:35.211Z,42.25
2023-05-19T07:37:35.207Z,43.90
2023-05-19T07:38:35.235Z,43.08
2023-05-19T07:39:35.176Z,42.46
2023-05-19T07:40:35.282Z,42.66
2023-05-19T07:41:36.444Z,43.84
2023-05-19T07:42:35.137Z,42.63
2023-05-19T07:43:35.129Z,42.94
2023-05-19T07:44:35.142Z,42.83
2023-05-19T07:45:35.176Z,43.46
2023-05-19T07:46:35.194Z,42.38
2023-05-19T07:47:35.119Z,42.88
2023-05-19T07:48:35.100Z,43.52
2023-05-19T07:49:35.116Z,42.92
2023-05-19T07:50:35.076Z,43.12
2023-05-19T07:51:35.080Z,43.42
2023-05-19T07:52:35.042Z,43.10
2023-05-19T07:53:35.065Z,42.61
2023-05-19T07:54:35.016Z,43.14
2023-05-19T07:55:35.030Z,43.32
2023-05-19T07:56:35.068Z,43.06
2023-05-19T07:57:34.992Z,41.75
2023-05-19T07:58:34.983Z,42.05
2023-05-19T07:59:35.021Z,42.38
2023-05-19T08:00:35.227Z,42.52
2023-05-19T08:01:34.988Z,43.84
2023-05-19T08:02:35.043Z,44.02
2023-05-19T08:03:35.191Z,44.04
2023-05-19T08:04:34.974Z,44.35
2023-05-19T08:05:34.914Z,44.97
2023-05-19T08:06:34.928Z,44.87
2023-05-19T08:07:34.894Z,44.85
2023-05-19T08:08:34.932Z,44.27
2023-05-19T08:09:34.861Z,44.87
2023-05-19T08:10:35.095Z,44.15
2023-05-19T08:11:34.882Z,43.64
2023-05-19T08:12:34.865Z,44.75
2023-05-19T08:13:34.912Z,44.53
2023-05-19T08:14:34.870Z,44.51
2023-05-19T08:15:35.609Z,42.46
2023-05-19T08:16:34.802Z,42.27
2023-05-19T08:17:34.854Z,42.80
2023-05-19T08:18:34.802Z,43.82
2023-05-19T08:19:34.784Z,44.43
2023-05-19T08:20:35.065Z,43.22
2023-05-19T08:21:34.781Z,43.60
2023-05-19T08:22:34.756Z,44.73
2023-05-19T08:23:34.746Z,44.12
2023-05-19T08:24:34.769Z,44.02
2023-05-19T08:25:35.718Z,42.90
2023-05-19T08:26:37.066Z,43.80
2023-05-19T08:27:34.711Z,42.58
2023-05-19T08:28:34.717Z,42.68
2023-05-19T08:29:34.688Z,42.68
2023-05-19T08:30:34.836Z,42.76
2023-05-19T08:31:34.837Z,42.44
2023-05-19T08:32:34.680Z,42.74
2023-05-19T08:33:34.690Z,42.74
2023-05-19T08:34:34.659Z,42.24
2023-05-19T08:35:34.625Z,42.35
2023-05-19T08:36:34.616Z,42.18
2023-05-19T08:37:34.612Z,43.20
2023-05-19T08:38:34.601Z,44.43
2023-05-19T08:39:34.609Z,44.35
2023-05-19T08:40:34.872Z,44.75
2023-05-19T08:41:35.563Z,45.15
2023-05-19T08:42:34.576Z,44.83
2023-05-19T08:43:34.556Z,43.90
2023-05-19T08:44:34.547Z,43.28
2023-05-19T08:45:34.811Z,43.26
2023-05-19T08:46:34.609Z,42.78
2023-05-19T08:47:34.564Z,43.56
2023-05-19T08:48:34.505Z,43.22
2023-05-19T08:49:34.491Z,42.02
2023-05-19T08:50:34.906Z,42.33
2023-05-19T08:51:34.475Z,43.38
2023-05-19T08:52:34.474Z,43.60
2023-05-19T08:53:34.860Z,44.23
2023-05-19T08:54:34.458Z,45.43
2023-05-19T08:55:34.746Z,45.01
2023-05-19T08:56:34.451Z,44.79
2023-05-19T08:57:34.437Z,43.64
2023-05-19T08:58:34.416Z,43.24
2023-05-19T08:59:34.450Z,42.76
2023-05-19T09:00:34.727Z,43.90
2023-05-19T09:01:34.427Z,43.68
2023-05-19T09:02:34.422Z,45.01
2023-05-19T09:03:34.484Z,44.40
2023-05-19T09:04:34.444Z,44.81
2023-05-19T09:05:34.750Z,44.79
2023-05-19T09:06:34.356Z,43.46
2023-05-19T09:07:34.338Z,43.98
2023-05-19T09:08:34.310Z,44.18
2023-05-19T09:09:34.323Z,43.70
2023-05-19T09:10:34.292Z,44.40
2023-05-19T09:11:34.306Z,44.40
2023-05-19T09:12:34.261Z,44.53
2023-05-19T09:13:34.265Z,44.83
2023-05-19T09:14:34.259Z,45.10
2023-05-19T09:15:34.479Z,42.46
2023-05-19T09:16:34.355Z,43.38
2023-05-19T09:17:34.258Z,42.60
2023-05-19T09:18:34.208Z,44.23
2023-05-19T09:19:34.264Z,46.46
2023-05-19T09:20:34.230Z,45.81
2023-05-19T09:21:34.185Z,45.31
2023-05-19T09:22:34.170Z,44.99
2023-05-19T09:23:34.184Z,44.40
2023-05-19T09:24:34.150Z,45.83
2023-05-19T09:25:34.370Z,45.45
2023-05-19T09:26:34.195Z,45.94
2023-05-19T09:27:34.113Z,45.13
2023-05-19T09:28:34.122Z,45.86
2023-05-19T09:29:34.091Z,45.78
2023-05-19T09:30:34.133Z,45.98
2023-05-19T09:31:34.139Z,45.86
2023-05-19T09:32:34.102Z,46.78
2023-05-19T09:33:34.081Z,46.38
2023-05-19T09:34:34.045Z,46.30
2023-05-19T09:35:34.310Z,47.41
2023-05-19T09:36:34.030Z,46.00
2023-05-19T09:37:34.037Z,47.20
2023-05-19T09:38:34.006Z,47.31
2023-05-19T09:39:34.060Z,46.48
2023-05-19T09:40:33.982Z,46.02
2023-05-19T09:41:33.968Z,46.83
2023-05-19T09:42:33.961Z,47.94
2023-05-19T09:43:33.953Z,46.28
2023-05-19T09:44:33.976Z,46.73
2023-05-19T09:45:34.038Z,47.43
2023-05-19T09:46:34.078Z,47.20
2023-05-19T09:47:33.941Z,47.28
2023-05-19T09:48:33.899Z,46.96
2023-05-19T09:49:33.913Z,45.53
2023-05-19T09:50:33.906Z,45.03
2023-05-19T09:51:33.901Z,44.35
2023-05-19T09:52:33.870Z,45.25
2023-05-19T09:53:33.859Z,45.53
2023-05-19T09:54:33.864Z,45.01
2023-05-19T09:55:34.034Z,44.00
2023-05-19T09:56:33.828Z,44.35
2023-05-19T09:57:33.863Z,43.76
2023-05-19T09:58:33.802Z,45.27
2023-05-19T09:59:34.235Z,45.45
2023-05-19T10:00:34.070Z,43.74
2023-05-19T10:01:33.874Z,45.15
2023-05-19T10:02:33.805Z,44.15
2023-05-19T10:03:33.813Z,44.67
2023-05-19T10:04:33.827Z,45.39
2023-05-19T10:05:35.232Z,47.51
2023-05-19T10:06:33.767Z,48.37
2023-05-19T10:07:33.752Z,45.53
2023-05-19T10:08:33.733Z,43.14
2023-05-19T10:09:33.717Z,44.69
2023-05-19T10:10:33.686Z,44.29
2023-05-19T10:11:33.691Z,44.97
2023-05-19T10:12:33.669Z,45.35
2023-05-19T10:13:33.707Z,45.45
2023-05-19T10:14:33.654Z,47.20
2023-05-19T10:15:40.801Z,46.12
2023-05-19T10:16:33.682Z,46.00
2023-05-19T10:17:33.714Z,47.23
2023-05-19T10:18:33.638Z,47.43
2023-05-19T10:19:33.803Z,48.92
2023-05-19T10:20:33.844Z,47.69
2023-05-19T10:21:33.608Z,46.70
2023-05-19T10:22:33.593Z,48.87
2023-05-19T10:23:33.596Z,49.65
2023-05-19T10:24:33.556Z,45.51
2023-05-19T10:25:33.901Z,44.93
2023-05-19T10:26:33.562Z,45.03
2023-05-19T10:27:33.524Z,46.31
2023-05-19T10:28:33.537Z,46.03
2023-05-19T10:29:33.518Z,45.86
2023-05-19T10:30:33.502Z,47.94
2023-05-19T10:31:33.522Z,48.54
2023-05-19T10:32:33.546Z,47.86
2023-05-19T10:33:33.499Z,48.56
2023-05-19T10:34:33.470Z,48.26
2023-05-19T10:35:33.828Z,47.47
2023-05-19T10:36:33.448Z,47.88
2023-05-19T10:37:33.450Z,49.19
2023-05-19T10:38:33.431Z,49.11
2023-05-19T10:39:33.434Z,48.81
2023-05-19T10:40:33.403Z,49.90
2023-05-19T10:41:33.407Z,48.28
2023-05-19T10:42:33.380Z,47.67
2023-05-19T10:43:33.402Z,47.35
2023-05-19T10:44:33.370Z,46.73
2023-05-19T10:45:33.523Z,47.53
2023-05-19T10:46:33.445Z,47.25
2023-05-19T10:47:33.405Z,47.67
2023-05-19T10:48:33.362Z,48.21
2023-05-19T10:49:33.324Z,48.21
2023-05-19T10:50:33.312Z,47.60
2023-05-19T10:51:33.318Z,49.01
2023-05-19T10:53:05.217Z,49.09
2023-05-19T10:53:33.292Z,48.26
2023-05-19T10:54:33.339Z,48.18
2023-05-19T10:55:33.529Z,49.29
2023-05-19T10:56:33.311Z,49.09
2023-05-19T10:57:33.272Z,48.06
2023-05-19T10:58:33.259Z,47.98
2023-05-19T10:59:33.255Z,47.75
2023-05-19T11:00:33.275Z,48.06
2023-05-19T11:01:33.359Z,47.98
2023-05-19T11:02:33.259Z,48.58
2023-05-19T11:03:33.217Z,48.79
2023-05-19T11:04:33.225Z,48.36
2023-05-19T11:05:33.296Z,48.26
2023-05-19T11:06:33.187Z,48.44
2023-05-19T11:07:33.184Z,48.14
2023-05-19T11:08:33.192Z,47.74
2023-05-19T11:09:40.005Z,48.34
2023-05-19T11:10:35.130Z,48.64
2023-05-19T11:11:33.326Z,49.44
2023-05-19T11:12:33.125Z,49.12
2023-05-19T11:13:33.096Z,49.42
2023-05-19T11:14:33.096Z,49.42
2023-05-19T11:15:33.357Z,48.69
2023-05-19T11:16:33.108Z,48.72
2023-05-19T11:17:34.422Z,48.41
2023-05-19T11:18:34.044Z,48.84
2023-05-19T11:19:33.132Z,49.37
2023-05-19T11:20:33.029Z,49.37
2023-05-19T11:21:33.055Z,51.18
2023-05-19T11:22:33.015Z,50.37
2023-05-19T11:23:33.481Z,51.06
2023-05-19T11:24:33.001Z,48.74
2023-05-19T11:25:33.182Z,49.27
2023-05-19T11:26:33.040Z,49.19
2023-05-19T11:27:32.982Z,49.69
2023-05-19T11:28:32.987Z,49.27
2023-05-19T11:29:34.732Z,48.96
2023-05-19T11:30:32.943Z,49.27
2023-05-19T11:31:32.989Z,49.09
2023-05-19T11:32:32.925Z,49.07
2023-05-19T11:33:32.948Z,48.18
2023-05-19T11:34:32.909Z,47.96
2023-05-19T11:35:35.420Z,49.35
2023-05-19T11:36:33.899Z,47.63
2023-05-19T11:37:32.893Z,48.21
2023-05-19T11:38:32.885Z,47.89
2023-05-19T11:39:32.842Z,48.29
2023-05-19T11:40:32.861Z,47.51
2023-05-19T11:41:32.847Z,47.33
2023-05-19T11:42:32.849Z,48.24
2023-05-19T11:43:32.835Z,47.94
2023-05-19T11:44:32.807Z,47.55
2023-05-19T11:45:33.023Z,47.05
2023-05-19T11:46:32.827Z,47.45
2023-05-19T11:47:42.551Z,47.45
2023-05-19T11:48:33.799Z,48.16
2023-05-19T11:49:32.793Z,48.74
2023-05-19T11:50:32.759Z,47.33
2023-05-19T11:51:32.739Z,48.84
2023-05-19T11:52:32.761Z,48.01
2023-05-19T11:53:34.013Z,45.47
2023-05-19T11:54:33.743Z,44.49
2023-05-19T11:55:32.708Z,46.30
2023-05-19T11:56:32.699Z,45.01
2023-05-19T11:57:32.729Z,45.52
2023-05-19T11:58:32.668Z,45.09
2023-05-19T11:59:33.442Z,45.82
2023-05-19T12:00:32.682Z,45.29
2023-05-19T12:01:32.667Z,47.00
2023-05-19T12:02:32.706Z,47.91
2023-05-19T12:03:32.691Z,47.08
2023-05-19T12:04:32.671Z,48.19
2023-05-19T12:05:34.845Z,48.49
2023-05-19T12:06:32.650Z,47.49
2023-05-19T12:07:32.605Z,47.97
2023-05-19T12:08:32.593Z,47.06
2023-05-19T12:09:32.575Z,47.14
2023-05-19T12:10:33.539Z,45.43
2023-05-19T12:11:32.538Z,46.02
2023-05-19T12:12:32.529Z,47.33
2023-05-19T12:13:32.596Z,47.51
2023-05-19T12:14:32.528Z,48.92
2023-05-19T12:15:32.754Z,48.09
2023-05-19T12:16:33.683Z,47.16
2023-05-19T12:17:32.476Z,46.08
2023-05-19T12:18:32.489Z,45.67
2023-05-19T12:19:32.516Z,45.95
2023-05-19T12:20:32.562Z,45.63
2023-05-19T12:21:34.351Z,45.73
2023-05-19T12:22:32.445Z,45.65
2023-05-19T12:23:32.462Z,45.25
2023-05-19T12:24:32.436Z,44.87
2023-05-19T12:25:32.948Z,45.39
2023-05-19T12:26:32.429Z,45.19
2023-05-19T12:27:34.654Z,44.89
2023-05-19T12:28:32.375Z,44.92
2023-05-19T12:29:32.369Z,46.83
2023-05-19T12:30:33.089Z,46.50
2023-05-19T12:31:32.446Z,47.08
2023-05-19T12:32:32.357Z,47.08
2023-05-19T12:33:33.506Z,45.94
2023-05-19T12:34:32.334Z,44.02
2023-05-19T12:35:32.339Z,43.14
2023-05-19T12:36:32.326Z,44.35
2023-05-19T12:37:32.289Z,43.84
2023-05-19T12:38:32.296Z,43.14
2023-05-19T12:39:32.330Z,43.76
2023-05-19T12:40:32.978Z,43.06
2023-05-19T12:41:32.312Z,44.35
2023-05-19T12:42:32.255Z,43.14
2023-05-19T12:43:32.264Z,43.12
2023-05-19T12:44:32.253Z,45.35
2023-05-19T12:45:32.227Z,45.75
2023-05-19T12:46:32.294Z,45.55
2023-05-19T12:47:32.229Z,45.67
2023-05-19T12:48:32.209Z,46.98
2023-05-19T12:49:32.179Z,45.50
2023-05-19T12:50:32.313Z,46.91
2023-05-19T12:51:32.165Z,46.20
2023-05-19T12:52:32.165Z,46.42